Time;durP1;ratioP1;P1;durP2;ratioP2;P2;SDS_P1;SDS_P2;PMS_P1;PMS_P2;Temp;Humidity;BMP_temperature;BMP_pressure;BME280_temperature;BME280_humidity;BME280_pressure;Samples;Min_cycle;Max_cycle;Signal;HPM_P1;HPM_P2
2022/08/15 00:00:59;;;;;;;14.52;11.48;;;15.60;99.90;;;;;;4823839;29;20306;-50
2022/08/15 00:03:32;;;;;;;14.55;13.02;;;15.60;99.90;;;;;;4823893;29;20046;-50
2022/08/15 00:06:03;;;;;;;13.90;11.80;;;15.60;99.90;;;;;;4820130;29;20031;-53
2022/08/15 00:08:30;;;;;;;16.02;11.65;;;15.60;99.90;;;;;;4823806;29;20042;-52
2022/08/15 00:11:09;;;;;;;16.85;12.05;;;15.60;99.90;;;;;;4823857;29;20068;-51
2022/08/15 00:13:37;;;;;;;15.05;13.45;;;15.50;99.90;;;;;;4823903;29;20050;-52
2022/08/15 00:16:05;;;;;;;17.40;12.60;;;15.50;99.90;;;;;;4823580;29;20062;-51
2022/08/15 00:18:31;;;;;;;13.43;11.70;;;15.40;99.90;;;;;;4823687;29;20038;-50
2022/08/15 00:20:58;;;;;;;17.27;11.82;;;15.40;99.90;;;;;;4822474;29;20071;-51
2022/08/15 00:23:26;;;;;;;15.35;12.20;;;15.40;99.90;;;;;;4822019;29;20057;-51
2022/08/15 00:25:55;;;;;;;14.52;11.85;;;15.30;99.90;;;;;;4821708;29;20038;-52
2022/08/15 00:28:21;;;;;;;13.18;11.77;;;15.20;99.90;;;;;;4822533;29;20066;-53
2022/08/15 00:30:47;;;;;;;19.08;12.85;;;15.20;99.90;;;;;;4823467;29;20050;-52
2022/08/15 00:33:14;;;;;;;20.65;12.73;;;15.20;99.90;;;;;;4823263;29;20026;-51
2022/08/15 00:35:42;;;;;;;22.70;12.48;;;15.20;99.90;;;;;;4823170;29;20459;-50
2022/08/15 00:38:20;;;;;;;19.00;12.93;;;15.10;99.90;;;;;;4822288;29;20038;-53
2022/08/15 00:43:34;;;;;;;16.15;12.95;;;14.90;99.90;;;;;;4823795;29;20152;-51
2022/08/15 00:46:02;;;;;;;14.18;12.75;;;14.90;99.90;;;;;;4823186;29;20078;-52
2022/08/15 00:48:43;;;;;;;17.27;12.40;;;14.90;99.90;;;;;;4823456;29;20429;-51
2022/08/15 00:51:30;;;;;;;17.13;13.50;;;14.90;99.90;;;;;;4823189;29;20087;-51
2022/08/15 00:54:10;;;;;;;17.83;13.18;;;14.80;99.90;;;;;;4823339;29;20181;-50
2022/08/15 00:56:43;;;;;;;17.98;13.35;;;14.80;99.90;;;;;;4823295;29;20038;-51
2022/08/15 00:59:13;;;;;;;16.10;13.27;;;14.80;99.90;;;;;;4823094;29;20027;-50
2022/08/15 01:01:40;;;;;;;17.73;12.70;;;14.80;99.90;;;;;;4823131;29;20031;-50
2022/08/15 01:04:08;;;;;;;16.88;14.07;;;14.70;99.90;;;;;;4822182;29;20109;-52
2022/08/15 01:06:37;;;;;;;21.73;12.52;;;14.70;99.90;;;;;;4805092;29;20034;-51
2022/08/15 01:09:05;;;;;;;20.00;12.77;;;14.80;99.90;;;;;;4818183;29;20034;-51
2022/08/15 01:11:36;;;;;;;14.15;11.57;;;14.70;99.90;;;;;;4822911;29;20038;-51
2022/08/15 01:14:06;;;;;;;16.30;12.73;;;14.70;99.90;;;;;;4822694;29;20046;-51
2022/08/15 01:16:33;;;;;;;16.63;13.70;;;14.60;99.90;;;;;;4822949;29;20030;-52
2022/08/15 01:18:59;;;;;;;18.65;12.90;;;14.70;99.90;;;;;;4822640;29;20375;-51
2022/08/15 01:22:00;;;;;;;15.75;13.50;;;14.60;99.90;;;;;;4807835;29;20026;-50
2022/08/15 01:24:56;;;;;;;14.88;12.40;;;14.60;99.90;;;;;;4822603;29;20042;-52
2022/08/15 01:27:25;;;;;;;16.55;13.20;;;14.50;99.90;;;;;;4812981;29;20034;-50
2022/08/15 01:29:53;;;;;;;17.40;13.70;;;14.40;99.90;;;;;;4822648;29;20547;-50
2022/08/15 01:32:19;;;;;;;17.17;14.82;;;14.30;99.90;;;;;;4822560;29;20042;-51
2022/08/15 01:34:45;;;;;;;15.27;12.38;;;14.30;99.90;;;;;;4822837;29;20030;-50
2022/08/15 01:37:11;;;;;;;19.23;13.98;;;14.30;99.90;;;;;;4822606;29;20088;-52
2022/08/15 01:39:46;;;;;;;17.63;14.00;;;14.30;99.90;;;;;;4822839;29;20443;-51
2022/08/15 01:42:44;;;;;;;18.65;14.23;;;14.30;99.90;;;;;;4822272;29;20038;-52
2022/08/15 01:45:18;;;;;;;17.73;14.50;;;14.40;99.90;;;;;;4821978;29;20049;-51
2022/08/15 01:47:53;;;;;;;;;;;14.30;99.90;;;;;;4823415;29;20041;-50
2022/08/15 01:50:30;;;;;;;33.45;14.30;;;14.30;99.90;;;;;;4822514;29;20463;-50
2022/08/15 01:53:32;;;;;;;19.25;12.52;;;14.30;99.90;;;;;;4822538;29;20034;-49
2022/08/15 01:55:58;;;;;;;18.10;12.48;;;14.20;99.90;;;;;;4818718;29;20039;-50
2022/08/15 01:58:25;;;;;;;20.42;13.20;;;14.20;99.90;;;;;;4822190;29;20026;-50
2022/08/15 02:01:06;;;;;;;14.57;12.23;;;14.20;99.90;;;;;;4822239;29;20038;-50
2022/08/15 02:03:35;;;;;;;19.00;13.35;;;14.20;99.90;;;;;;4822506;29;20061;-49
2022/08/15 02:06:09;;;;;;;17.38;13.63;;;14.20;99.90;;;;;;4822311;29;20372;-49
2022/08/15 02:08:36;;;;;;;18.95;12.77;;;14.20;99.90;;;;;;4821749;29;20062;-51
2022/08/15 02:11:05;;;;;;;21.08;13.75;;;14.10;99.90;;;;;;4822179;29;20070;-51
2022/08/15 02:13:31;;;;;;;15.40;13.23;;;14.00;99.90;;;;;;4822069;29;20459;-50
2022/08/15 02:15:57;;;;;;;16.52;13.82;;;13.90;99.90;;;;;;4823412;29;20034;-52
2022/08/15 02:18:22;;;;;;;18.35;13.32;;;13.90;99.90;;;;;;4825715;29;20125;-51
2022/08/15 02:20:48;;;;;;;16.80;12.70;;;13.80;99.90;;;;;;4825874;29;20030;-51
2022/08/15 02:23:14;;;;;;;20.58;13.85;;;13.80;99.90;;;;;;4825612;29;20041;-51
2022/08/15 02:25:40;;;;;;;17.05;13.65;;;13.80;99.90;;;;;;4825630;29;20058;-51
2022/08/15 02:28:07;;;;;;;20.92;14.05;;;13.80;99.90;;;;;;4825256;29;20054;-51
2022/08/15 02:30:34;;;;;;;23.00;14.30;;;13.80;99.90;;;;;;4824830;29;20030;-51
2022/08/15 02:33:01;;;;;;;21.52;13.80;;;13.80;99.90;;;;;;4825385;29;20035;-52
2022/08/15 02:35:28;;;;;;;18.20;13.60;;;13.90;99.90;;;;;;4825623;29;20086;-50
2022/08/15 02:37:53;;;;;;;16.02;13.50;;;13.80;99.90;;;;;;4825402;29;20038;-51
2022/08/15 02:40:19;;;;;;;18.08;14.85;;;13.90;99.90;;;;;;4825501;29;20033;-50
2022/08/15 02:42:46;;;;;;;14.27;12.70;;;13.80;99.90;;;;;;4825364;29;20036;-51
2022/08/15 02:45:12;;;;;;;19.20;14.13;;;13.70;99.90;;;;;;4823738;29;20042;-51
2022/08/15 02:47:39;;;;;;;19.40;13.90;;;13.60;99.90;;;;;;4825351;29;20572;-51
2022/08/15 02:50:06;;;;;;;19.90;14.70;;;13.60;99.90;;;;;;4824814;29;20117;-51
2022/08/15 02:52:33;;;;;;;17.55;14.88;;;13.60;99.90;;;;;;4824993;29;20031;-50
2022/08/15 02:55:00;;;;;;;19.23;13.95;;;13.60;99.90;;;;;;4824840;29;20031;-51
2022/08/15 02:57:28;;;;;;;17.17;13.80;;;13.60;99.90;;;;;;4825018;29;20022;-51
2022/08/15 02:59:53;;;;;;;15.57;12.75;;;13.60;99.90;;;;;;4824916;29;20038;-52
2022/08/15 03:02:19;;;;;;;18.77;13.52;;;13.60;99.90;;;;;;4824747;29;20034;-50
2022/08/15 03:04:46;;;;;;;26.38;14.02;;;13.60;99.90;;;;;;4825026;29;20069;-50
2022/08/15 03:07:12;;;;;;;16.98;13.27;;;13.50;99.90;;;;;;4824659;29;20402;-50
2022/08/15 03:09:37;;;;;;;16.67;13.35;;;13.50;99.90;;;;;;4824920;29;20126;-51
2022/08/15 03:12:04;;;;;;;23.80;13.02;;;13.50;99.90;;;;;;4824598;29;20026;-50
2022/08/15 03:14:30;;;;;;;16.17;12.35;;;13.50;99.90;;;;;;4824680;29;20046;-52
2022/08/15 03:16:56;;;;;;;22.40;13.88;;;13.50;99.90;;;;;;4824386;29;20038;-52
2022/08/15 03:19:26;;;;;;;19.10;13.05;;;13.40;99.90;;;;;;4824002;29;20546;-50
2022/08/15 03:21:53;;;;;;;14.68;12.35;;;13.40;99.90;;;;;;4824704;29;20038;-52
2022/08/15 03:24:19;;;;;;;17.67;13.90;;;13.30;99.90;;;;;;4823901;29;20038;-50
2022/08/15 03:26:46;;;;;;;22.08;15.07;;;13.40;99.90;;;;;;4824177;29;20038;-52
2022/08/15 03:29:18;;;;;;;22.20;14.35;;;13.30;99.90;;;;;;4824366;29;20070;-50
2022/08/15 03:31:47;;;;;;;20.48;13.93;;;13.30;99.90;;;;;;4824499;29;20034;-51
2022/08/15 03:34:15;;;;;;;24.83;14.40;;;13.30;99.90;;;;;;4824556;29;20029;-53
2022/08/15 03:36:45;;;;;;;18.48;14.23;;;13.30;99.90;;;;;;4824216;29;20034;-49
2022/08/15 03:39:11;;;;;;;18.48;13.13;;;13.40;99.90;;;;;;4824285;29;20035;-50
2022/08/15 03:41:36;;;;;;;17.40;13.18;;;13.40;99.90;;;;;;4824652;29;20376;-50
2022/08/15 03:44:03;;;;;;;22.30;14.75;;;13.40;99.90;;;;;;4824362;29;20034;-51
2022/08/15 03:46:29;;;;;;;22.23;14.07;;;13.40;99.90;;;;;;4824434;29;20487;-51
2022/08/15 03:48:56;;;;;;;18.15;14.90;;;13.40;99.90;;;;;;4824447;29;20113;-51
2022/08/15 03:51:24;;;;;;;17.92;14.88;;;13.40;99.90;;;;;;4822832;29;20582;-53
2022/08/15 03:53:56;;;;;;;21.20;15.27;;;13.40;99.90;;;;;;4824362;29;20375;-50
2022/08/15 03:56:26;;;;;;;20.70;14.07;;;13.40;99.90;;;;;;4823996;29;20053;-50
2022/08/15 03:58:53;;;;;;;20.45;13.40;;;13.40;99.90;;;;;;4824483;29;20029;-51
2022/08/15 04:01:22;;;;;;;19.02;14.18;;;13.50;99.90;;;;;;4823804;29;20034;-50
2022/08/15 04:03:50;;;;;;;19.00;13.93;;;13.60;99.90;;;;;;4823663;29;20045;-52
2022/08/15 04:06:19;;;;;;;16.55;13.63;;;13.60;99.90;;;;;;4823897;29;20042;-50
2022/08/15 04:08:47;;;;;;;17.77;12.95;;;13.60;99.90;;;;;;4823820;29;20046;-50
2022/08/15 04:11:14;;;;;;;16.10;12.82;;;13.60;99.90;;;;;;4823883;29;20038;-51
2022/08/15 04:13:41;;;;;;;20.25;13.63;;;13.70;99.90;;;;;;4823851;29;20114;-50
2022/08/15 04:16:07;;;;;;;15.15;12.98;;;13.70;99.90;;;;;;4823936;29;20022;-50
2022/08/15 04:18:35;;;;;;;17.02;13.35;;;13.70;99.90;;;;;;4823539;29;20107;-50
2022/08/15 04:21:04;;;;;;;15.73;13.32;;;13.70;99.90;;;;;;4823627;29;20035;-49
2022/08/15 04:23:31;;;;;;;16.23;13.85;;;13.80;99.90;;;;;;4823852;29;20378;-50
2022/08/15 04:25:57;;;;;;;16.38;12.18;;;13.80;99.90;;;;;;4823758;29;20055;-50
2022/08/15 04:28:25;;;;;;;18.92;13.13;;;13.90;99.90;;;;;;4823647;29;20042;-51
2022/08/15 04:30:51;;;;;;;22.35;13.55;;;14.00;99.90;;;;;;4822542;29;20065;-50
2022/08/15 04:33:27;;;;;;;18.17;12.98;;;14.10;99.90;;;;;;4823364;29;20165;-51
2022/08/15 04:36:09;;;;;;;18.08;14.18;;;14.10;99.90;;;;;;4817157;29;20030;-56
2022/08/15 04:38:36;;;;;;;18.60;13.38;;;14.20;99.90;;;;;;4822737;29;20045;-50
2022/08/15 04:41:04;;;;;;;24.83;14.20;;;14.30;99.90;;;;;;4822312;29;20037;-49
2022/08/15 04:43:31;;;;;;;16.45;13.82;;;14.40;99.90;;;;;;4822032;29;20045;-50
2022/08/15 04:45:58;;;;;;;15.63;13.30;;;14.50;99.90;;;;;;4821962;29;20054;-50
2022/08/15 04:48:25;;;;;;;19.65;14.68;;;14.60;99.90;;;;;;4822276;29;20034;-49
2022/08/15 04:50:52;;;;;;;18.25;13.80;;;14.70;99.90;;;;;;4822267;29;20038;-49
2022/08/15 04:53:21;;;;;;;17.83;14.60;;;14.90;99.90;;;;;;4820736;29;20067;-49
2022/08/15 04:55:49;;;;;;;20.42;13.70;;;15.10;99.90;;;;;;4822031;29;20079;-49
2022/08/15 04:58:16;;;;;;;18.05;14.55;;;15.20;99.90;;;;;;4821156;29;20110;-49
2022/08/15 05:00:50;;;;;;;16.33;12.27;;;15.40;99.90;;;;;;4820628;29;20034;-49
2022/08/15 05:03:19;;;;;;;16.02;13.70;;;15.60;99.90;;;;;;4821910;29;20038;-50
2022/08/15 05:05:49;;;;;;;18.80;14.65;;;15.90;99.90;;;;;;4821484;29;20034;-49
2022/08/15 05:08:15;;;;;;;21.77;16.23;;;16.20;99.90;;;;;;4820937;29;20042;-50
2022/08/15 05:10:44;;;;;;;20.77;15.57;;;16.30;99.90;;;;;;4811193;29;20099;-51
2022/08/15 05:13:15;;;;;;;18.35;15.10;;;16.40;99.90;;;;;;4805720;29;20046;-49
2022/08/15 05:15:42;;;;;;;23.85;16.23;;;16.50;99.90;;;;;;4816886;29;20038;-49
2022/08/15 05:18:08;;;;;;;18.45;16.30;;;16.60;99.90;;;;;;4821590;29;20022;-49
2022/08/15 05:20:34;;;;;;;17.73;14.55;;;16.80;99.90;;;;;;4820171;29;20383;-50
2022/08/15 05:23:03;;;;;;;16.20;14.50;;;17.00;99.90;;;;;;4821333;29;20038;-49
2022/08/15 05:25:31;;;;;;;19.67;15.00;;;17.30;99.90;;;;;;4820162;29;20196;-49
2022/08/15 05:27:57;;;;;;;15.70;14.05;;;17.40;99.90;;;;;;4821177;29;20521;-50
2022/08/15 05:30:23;;;;;;;16.52;14.50;;;17.50;99.90;;;;;;4819894;29;20242;-50
2022/08/15 05:33:06;;;;;;;16.08;13.93;;;17.50;99.90;;;;;;4818622;29;20027;-51
2022/08/15 05:35:32;;;;;;;16.23;14.32;;;17.70;99.90;;;;;;4817948;29;20034;-49
2022/08/15 05:38:04;;;;;;;16.48;14.52;;;17.70;99.90;;;;;;4818262;29;20057;-50
2022/08/15 05:40:55;;;;;;;15.27;13.73;;;17.70;99.90;;;;;;4818005;29;20071;-50
2022/08/15 05:44:02;;;;;;;14.88;13.27;;;17.90;99.90;;;;;;4802834;29;20410;-49
2022/08/15 05:46:40;;;;;;;13.50;11.60;;;18.20;99.90;;;;;;4806683;29;20062;-50
2022/08/15 05:49:30;;;;;;;14.02;10.88;;;18.50;99.90;;;;;;4822632;29;20095;-51
2022/08/15 05:52:15;;;;;;;12.27;10.98;;;18.70;99.90;;;;;;4822588;29;20099;-50
2022/08/15 05:55:12;;;;;;;16.63;11.30;;;18.90;99.90;;;;;;4822627;29;20046;-50
2022/08/15 05:58:35;;;;;;;11.75;10.55;;;19.10;99.90;;;;;;4821262;29;20069;-50
2022/08/15 06:01:09;;;;;;;11.35;10.00;;;19.30;99.90;;;;;;4798973;29;20043;-51
2022/08/15 06:03:39;;;;;;;15.48;9.85;;;19.50;99.90;;;;;;4784168;29;20735;-49
2022/08/15 06:06:12;;;;;;;11.05;9.60;;;19.70;99.90;;;;;;4803307;29;20046;-52
2022/08/15 06:08:43;;;;;;;;;;;19.80;99.90;;;;;;4818050;29;20550;-50
2022/08/15 06:11:27;;;;;;;14.43;10.20;;;19.90;99.90;;;;;;4814305;29;20331;-50
2022/08/15 06:14:06;;;;;;;11.95;9.57;;;19.90;99.90;;;;;;4815052;29;20072;-53
2022/08/15 06:16:40;;;;;;;14.23;9.07;;;20.00;99.90;;;;;;4814732;29;20022;-50
2022/08/15 06:19:14;;;;;;;17.00;9.55;;;20.00;99.90;;;;;;4812296;29;20026;-50
2022/08/15 06:21:53;;;;;;;12.95;9.55;;;20.10;99.90;;;;;;4804607;29;20034;-49
2022/08/15 06:25:04;;;;;;;11.40;8.32;;;20.30;99.90;;;;;;4807566;29;20031;-50
2022/08/15 06:27:33;;;;;;;11.90;7.85;;;20.50;99.90;;;;;;4822508;29;20043;-50
2022/08/15 06:30:10;;;;;;;9.20;8.05;;;20.80;99.90;;;;;;4804652;29;20095;-50
2022/08/15 06:33:19;;;;;;;8.77;7.78;;;21.00;99.90;;;;;;4804301;29;20529;-50
2022/08/15 06:36:15;;;;;;;12.52;7.25;;;21.20;99.90;;;;;;4806518;29;20481;-49
2022/08/15 06:39:01;;;;;;;12.75;6.95;;;21.40;99.90;;;;;;4820681;29;20026;-49
2022/08/15 06:41:58;;;;;;;14.65;8.20;;;21.60;99.90;;;;;;4813427;29;20027;-49
2022/08/15 06:44:25;;;;;;;7.43;5.97;;;21.80;99.90;;;;;;4811712;29;20035;-50
2022/08/15 06:46:54;;;;;;;7.90;6.22;;;21.90;99.90;;;;;;4807559;29;20391;-49
2022/08/15 06:49:22;;;;;;;10.77;6.43;;;22.00;99.90;;;;;;4810024;29;20026;-51
2022/08/15 06:51:48;;;;;;;7.00;5.65;;;22.10;99.90;;;;;;4804903;29;20436;-51
2022/08/15 06:54:24;;;;;;;9.07;5.47;;;22.10;99.90;;;;;;4802974;29;20027;-47
2022/08/15 06:57:08;;;;;;;8.35;5.03;;;22.20;99.90;;;;;;4803053;29;20550;-50
2022/08/15 06:59:44;;;;;;;;;;;22.40;99.90;;;;;;4803914;29;20392;-53
2022/08/15 07:02:33;;;;;;;5.75;5.15;;;22.10;98.50;;;;;;4817856;29;20261;-50
2022/08/15 07:05:05;;;;;;;8.88;4.70;;;22.60;99.20;;;;;;4821963;29;20471;-50
2022/08/15 07:07:57;;;;;;;6.43;4.57;;;22.70;98.60;;;;;;4823728;29;20117;-52
2022/08/15 07:10:35;;;;;;;5.60;5.07;;;22.70;98.00;;;;;;4824056;29;20574;-49
2022/08/15 07:13:16;;;;;;;6.15;5.13;;;23.00;97.70;;;;;;4813619;29;20043;-51
2022/08/15 07:15:57;;;;;;;9.88;5.93;;;23.30;97.00;;;;;;4821253;29;20371;-52
2022/08/15 07:18:28;;;;;;;9.55;4.35;;;23.30;97.60;;;;;;4823737;29;20026;-50
2022/08/15 07:21:02;;;;;;;10.52;5.20;;;23.20;96.40;;;;;;4823721;29;20038;-50
2022/08/15 07:23:30;;;;;;;10.73;4.35;;;23.30;97.10;;;;;;4823767;29;20033;-50
2022/08/15 07:26:05;;;;;;;6.65;4.30;;;23.20;95.40;;;;;;4823877;29;20023;-50
2022/08/15 07:28:33;;;;;;;8.50;4.15;;;23.60;95.50;;;;;;4823912;29;20026;-50
2022/08/15 07:31:29;;;;;;;15.00;4.40;;;23.60;95.50;;;;;;4823592;29;20031;-50
2022/08/15 07:34:02;;;;;;;10.75;4.05;;;23.90;95.20;;;;;;4824734;29;20037;-49
2022/08/15 07:36:31;;;;;;;4.30;3.90;;;23.90;94.50;;;;;;4823411;29;20026;-50
2022/08/15 07:38:57;;;;;;;8.27;3.60;;;23.90;94.80;;;;;;4823471;29;20027;-51
2022/08/15 07:41:30;;;;;;;6.65;3.63;;;23.80;95.10;;;;;;4823604;29;20030;-49
2022/08/15 07:44:23;;;;;;;12.45;4.90;;;23.50;94.60;;;;;;4823648;29;20034;-50
2022/08/15 07:47:01;;;;;;;7.75;3.88;;;23.90;94.20;;;;;;4823308;29;20062;-50
2022/08/15 07:49:34;;;;;;;13.27;3.63;;;23.90;94.40;;;;;;4823294;29;20045;-50
2022/08/15 07:52:15;;;;;;;9.07;4.10;;;23.60;94.70;;;;;;4823031;29;20030;-50
2022/08/15 07:54:47;;;;;;;7.28;4.10;;;23.80;94.30;;;;;;4822852;29;20034;-49
2022/08/15 07:57:21;;;;;;;7.85;3.60;;;23.70;93.40;;;;;;4822908;29;20503;-51
2022/08/15 08:00:14;;;;;;;5.95;3.25;;;23.70;93.20;;;;;;4823097;29;20037;-51
2022/08/15 08:02:43;;;;;;;5.88;3.35;;;23.90;94.20;;;;;;4823349;29;20057;-49
2022/08/15 08:05:11;;;;;;;8.18;4.50;;;23.90;94.60;;;;;;4823737;29;20641;-50
2022/08/15 08:07:42;;;;;;;6.50;3.17;;;23.40;94.30;;;;;;4823729;29;20101;-49
2022/08/15 08:10:17;;;;;;;5.35;3.80;;;23.50;94.70;;;;;;4821655;29;20502;-50
2022/08/15 08:13:00;;;;;;;6.22;3.95;;;23.30;94.20;;;;;;4822779;29;20420;-55
2022/08/15 08:15:41;;;;;;;10.30;4.20;;;23.30;94.00;;;;;;4823492;29;20054;-52
2022/08/15 08:18:36;;;;;;;11.13;3.80;;;23.20;94.00;;;;;;4823345;29;20038;-50
2022/08/15 08:21:05;;;;;;;6.05;4.32;;;23.50;94.10;;;;;;4823478;29;20035;-50
2022/08/15 08:23:38;;;;;;;8.95;3.92;;;23.80;93.80;;;;;;4823575;29;20531;-52
2022/08/15 08:26:10;;;;;;;8.93;4.40;;;24.10;92.20;;;;;;4822153;29;20406;-52
2022/08/15 08:29:06;;;;;;;8.18;3.72;;;23.90;92.50;;;;;;4823154;29;20103;-52
2022/08/15 08:31:50;;;;;;;5.13;3.20;;;24.00;92.40;;;;;;4823802;29;20133;-52
2022/08/15 08:34:27;;;;;;;7.80;3.85;;;24.10;92.50;;;;;;4822279;29;20379;-50
2022/08/15 08:37:28;;;;;;;7.25;3.13;;;24.30;92.90;;;;;;4823409;29;20425;-51
2022/08/15 08:43:27;;;;;;;6.68;3.95;;;24.80;91.60;;;;;;4823376;29;20077;-50
2022/08/15 08:46:20;;;;;;;5.75;3.60;;;24.50;91.50;;;;;;4823666;29;20555;-49
2022/08/15 08:49:12;;;;;;;7.47;3.70;;;24.80;92.80;;;;;;4823672;29;20034;-50
2022/08/15 08:51:57;;;;;;;9.23;3.45;;;24.60;92.40;;;;;;4823237;29;20026;-50
2022/08/15 08:54:47;;;;;;;8.32;3.08;;;24.90;92.30;;;;;;4822962;29;20043;-49
2022/08/15 08:57:18;;;;;;;14.68;4.05;;;24.90;91.40;;;;;;4823271;29;20073;-50
2022/08/15 09:00:13;;;;;;;6.18;3.85;;;25.20;90.70;;;;;;4823099;29;20038;-48
2022/08/15 09:02:49;;;;;;;4.28;3.17;;;24.90;89.20;;;;;;4820443;29;20043;-49
2022/08/15 09:05:17;;;;;;;4.97;3.38;;;25.00;90.70;;;;;;4822500;29;20163;-49
2022/08/15 09:07:51;;;;;;;6.82;3.40;;;25.10;90.30;;;;;;4822937;29;20087;-51
2022/08/15 09:10:28;;;;;;;4.75;3.35;;;25.20;89.50;;;;;;4822891;29;20130;-51
2022/08/15 09:15:43;;;;;;;4.60;3.20;;;25.40;87.70;;;;;;4823438;29;20034;-49
2022/08/15 09:18:22;;;;;;;5.03;3.35;;;25.70;89.60;;;;;;4822472;29;20336;-49
2022/08/15 09:20:48;;;;;;;8.02;3.70;;;26.00;90.50;;;;;;4823169;29;20083;-55
2022/08/15 09:23:15;;;;;;;5.68;3.65;;;26.10;87.30;;;;;;4822908;29;20022;-53
2022/08/15 09:26:00;;;;;;;7.18;3.67;;;25.70;88.00;;;;;;4822695;29;20030;-51
2022/08/15 09:28:35;;;;;;;8.10;3.85;;;25.60;87.60;;;;;;4822693;29;20042;-52
2022/08/15 09:31:25;;;;;;;3.78;2.88;;;25.90;86.60;;;;;;4822556;29;20068;-50
2022/08/15 09:34:08;;;;;;;7.85;3.42;;;25.80;87.50;;;;;;4822247;29;20042;-51
2022/08/15 09:37:00;;;;;;;;;;;25.90;89.90;;;;;;4823102;29;20039;-50
2022/08/15 09:40:01;;;;;;;3.80;3.22;;;25.90;87.00;;;;;;4828259;29;19975;-53
2022/08/15 09:42:45;;;;;;;7.97;3.30;;;25.90;88.10;;;;;;4821570;29;20565;-49
2022/08/15 09:45:34;;;;;;;7.63;3.72;;;26.00;87.40;;;;;;4822955;29;20055;-51
2022/08/15 09:48:28;;;;;;;6.80;2.45;;;26.20;85.30;;;;;;4822425;29;20380;-50
2022/08/15 09:51:22;;;;;;;4.32;3.60;;;26.80;88.00;;;;;;4822126;29;20030;-49
2022/08/15 09:54:22;;;;;;;6.78;3.38;;;27.10;85.40;;;;;;4822392;29;20022;-50
2022/08/15 09:56:49;;;;;;;5.70;3.80;;;26.50;82.50;;;;;;4822464;29;20058;-51
2022/08/15 09:59:19;;;;;;;7.05;3.45;;;26.80;83.60;;;;;;4822230;29;20399;-51
2022/08/15 10:01:58;;;;;;;5.35;3.28;;;27.20;82.10;;;;;;4822506;29;20036;-50
2022/08/15 10:04:48;;;;;;;6.72;2.90;;;27.40;81.10;;;;;;4822129;29;20677;-49
2022/08/15 10:07:13;;;;;;;8.82;3.63;;;27.70;82.10;;;;;;4822424;29;20037;-49
2022/08/15 10:09:43;;;;;;;11.95;3.60;;;26.90;78.00;;;;;;4822374;29;20657;-50
2022/08/15 10:12:09;;;;;;;7.10;3.78;;;26.50;79.10;;;;;;4822067;29;20022;-51
2022/08/15 10:14:47;;;;;;;4.45;2.90;;;26.50;77.50;;;;;;4821963;29;20067;-50
2022/08/15 10:17:35;;;;;;;4.30;3.20;;;26.60;78.40;;;;;;4822326;29;20057;-50
2022/08/15 10:20:16;;;;;;;6.97;3.53;;;26.80;79.90;;;;;;4821886;29;20018;-49
2022/08/15 10:22:57;;;;;;;9.85;3.65;;;27.20;78.90;;;;;;4822196;29;20498;-51
2022/08/15 10:25:22;;;;;;;8.30;3.22;;;27.10;79.80;;;;;;4822032;29;20144;-52
2022/08/15 10:28:12;;;;;;;6.63;3.67;;;27.60;75.50;;;;;;4822136;29;20506;-71
2022/08/15 10:30:46;;;;;;;7.32;3.17;;;28.00;74.90;;;;;;4813425;29;20043;-50
2022/08/15 10:33:48;;;;;;;8.93;3.15;;;28.10;74.10;;;;;;4822321;29;20467;-51
2022/08/15 10:36:13;;;;;;;10.68;3.80;;;28.00;75.80;;;;;;4824678;29;20121;-49
2022/08/15 10:38:51;;;;;;;4.20;3.00;;;28.20;75.10;;;;;;4825714;29;20022;-50
2022/08/15 10:41:27;;;;;;;10.95;3.20;;;28.10;73.40;;;;;;4825257;29;20858;-50
2022/08/15 10:44:06;;;;;;;7.22;3.13;;;28.60;73.50;;;;;;4825272;29;20083;-51
2022/08/15 10:47:04;;;;;;;6.75;3.33;;;29.10;75.60;;;;;;4825527;29;20038;-53
2022/08/15 10:49:33;;;;;;;4.65;3.08;;;28.40;72.50;;;;;;4811516;29;20093;-50
2022/08/15 10:52:07;;;;;;;5.82;3.00;;;28.70;77.70;;;;;;4796530;29;20066;-49
2022/08/15 10:54:45;;;;;;;7.47;3.47;;;27.70;74.10;;;;;;4811580;29;20034;-49
2022/08/15 10:57:17;;;;;;;5.35;2.95;;;28.50;74.80;;;;;;4813793;29;20055;-51
2022/08/15 10:59:48;;;;;;;6.20;3.00;;;28.50;76.40;;;;;;4815013;29;20034;-50
2022/08/15 11:02:47;;;;;;;3.95;2.67;;;28.70;73.00;;;;;;4814175;29;20479;-49
2022/08/15 11:05:20;;;;;;;4.95;3.00;;;28.80;73.80;;;;;;4797297;29;20031;-49
2022/08/15 11:07:52;;;;;;;7.43;2.78;;;28.50;73.40;;;;;;4798322;29;20089;-49
2022/08/15 11:10:22;;;;;;;4.85;2.97;;;28.40;72.40;;;;;;4814334;29;20174;-49
2022/08/15 11:12:59;;;;;;;4.90;3.17;;;27.70;72.30;;;;;;4796190;29;20051;-48
2022/08/15 11:15:30;;;;;;;4.28;2.63;;;28.20;75.60;;;;;;4808169;29;20040;-50
2022/08/15 11:18:04;;;;;;;3.13;2.63;;;28.20;71.60;;;;;;4812753;29;20038;-51
2022/08/15 11:21:15;;;;;;;4.60;2.78;;;28.90;73.60;;;;;;4813013;29;20042;-50
2022/08/15 11:23:41;;;;;;;6.05;2.65;;;29.70;70.30;;;;;;4793237;29;20952;-49
2022/08/15 11:26:10;;;;;;;7.28;2.35;;;30.50;71.70;;;;;;4795143;29;20039;-50
2022/08/15 11:28:39;;;;;;;6.50;2.33;;;31.30;71.10;;;;;;4796021;29;20050;-49
2022/08/15 11:31:16;;;;;;;7.40;2.58;;;31.60;66.50;;;;;;4813010;29;20045;-53
2022/08/15 11:33:48;;;;;;;3.78;2.33;;;30.90;67.10;;;;;;4795661;29;20042;-50
2022/08/15 11:36:23;;;;;;;2.78;2.45;;;30.70;67.10;;;;;;4814329;29;20179;-50
2022/08/15 11:39:01;;;;;;;3.22;2.10;;;30.20;67.20;;;;;;4795932;29;20035;-52
2022/08/15 11:41:36;;;;;;;4.50;2.85;;;29.70;67.50;;;;;;4814245;29;20048;-52
2022/08/15 11:44:07;;;;;;;7.40;3.10;;;29.50;66.90;;;;;;4797353;29;20035;-50
2022/08/15 11:46:33;;;;;;;3.60;2.17;;;29.40;65.50;;;;;;4813889;29;20041;-50
2022/08/15 11:49:06;;;;;;;7.88;3.03;;;29.70;64.90;;;;;;4813463;29;20019;-52
2022/08/15 11:51:43;;;;;;;8.38;3.28;;;29.80;65.20;;;;;;4810968;29;20045;-49
2022/08/15 11:54:12;;;;;;;4.90;2.00;;;31.20;63.40;;;;;;4795165;29;20038;-49
2022/08/15 11:56:58;;;;;;;4.00;2.55;;;31.50;62.10;;;;;;4795736;29;20059;-50
2022/08/15 11:59:26;;;;;;;4.03;2.53;;;30.60;61.40;;;;;;4813342;29;20030;-51
2022/08/15 12:02:20;;;;;;;4.65;2.15;;;30.90;61.80;;;;;;4812969;29;20117;-51
2022/08/15 12:04:49;;;;;;;5.57;2.35;;;31.70;59.80;;;;;;4813699;29;20042;-52
2022/08/15 12:07:29;;;;;;;2.50;2.10;;;32.80;59.00;;;;;;4804332;29;20494;-50
2022/08/15 12:09:59;;;;;;;6.63;1.77;;;33.80;56.00;;;;;;4812553;29;20038;-51
2022/08/15 12:12:25;;;;;;;5.57;2.45;;;34.40;54.20;;;;;;4812662;29;20053;-50
2022/08/15 12:14:56;;;;;;;7.72;2.55;;;35.10;54.00;;;;;;4812742;29;20054;-52
2022/08/15 12:17:28;;;;;;;7.80;1.60;;;35.40;51.90;;;;;;4812209;29;20511;-51
2022/08/15 12:19:55;;;;;;;4.22;1.80;;;37.80;51.40;;;;;;4813148;29;20295;-51
2022/08/15 12:22:27;;;;;;;4.45;2.25;;;38.00;48.00;;;;;;4798446;29;20623;-53
2022/08/15 12:24:53;;;;;;;4.28;1.58;;;37.70;47.70;;;;;;4800477;29;20034;-53
2022/08/15 12:27:19;;;;;;;11.73;1.73;;;37.60;48.90;;;;;;4813515;29;20051;-50
2022/08/15 12:29:45;;;;;;;3.25;2.10;;;36.30;47.10;;;;;;4804131;29;20116;-53
2022/08/15 12:32:14;;;;;;;3.88;1.67;;;36.40;47.30;;;;;;4794974;29;20115;-54
2022/08/15 12:34:44;;;;;;;6.57;1.90;;;35.50;46.70;;;;;;4796261;29;20039;-50
2022/08/15 12:37:13;;;;;;;8.05;2.17;;;35.50;49.60;;;;;;4796091;29;20105;-51
2022/08/15 12:39:50;;;;;;;4.95;2.33;;;36.50;46.10;;;;;;4795423;29;20055;-50
2022/08/15 12:42:34;;;;;;;2.60;2.20;;;34.90;49.40;;;;;;4794897;29;20122;-49
2022/08/15 12:45:10;;;;;;;2.53;1.80;;;33.90;48.40;;;;;;4795084;29;20096;-50
2022/08/15 12:47:37;;;;;;;79.45;4.45;;;33.50;50.40;;;;;;4795160;29;20046;-50
2022/08/15 12:50:07;;;;;;;4.43;2.17;;;34.50;53.70;;;;;;4794514;29;20049;-51
2022/08/15 12:52:34;;;;;;;2.58;1.40;;;36.40;47.60;;;;;;4795207;29;20035;-51
2022/08/15 12:54:59;;;;;;;6.95;2.42;;;37.20;48.80;;;;;;4795255;29;20038;-53
2022/08/15 12:57:26;;;;;;;2.22;1.63;;;35.50;45.70;;;;;;4794338;29;20030;-50
2022/08/15 12:59:52;;;;;;;3.88;1.70;;;36.10;44.60;;;;;;4794508;29;20453;-49
2022/08/15 13:02:19;;;;;;;8.10;2.08;;;34.80;46.00;;;;;;4793583;29;20050;-50
2022/08/15 13:04:49;;;;;;;5.00;2.42;;;35.00;48.20;;;;;;4801192;29;20333;-50
2022/08/15 13:07:16;;;;;;;2.60;1.90;;;33.70;48.00;;;;;;4816993;29;20458;-50
2022/08/15 13:09:43;;;;;;;7.32;1.90;;;32.70;50.40;;;;;;4821583;29;20471;-53
2022/08/15 13:12:08;;;;;;;1.80;1.50;;;32.80;50.50;;;;;;4822684;29;20038;-51
2022/08/15 13:14:34;;;;;;;3.05;1.90;;;33.20;49.10;;;;;;4822070;29;20070;-50
2022/08/15 13:17:01;;;;;;;3.13;2.13;;;33.90;49.20;;;;;;4823064;29;20105;-50
2022/08/15 13:23:34;;;;;;;2.85;1.73;;;34.80;48.60;;;;;;4823063;29;20030;-52
2022/08/15 13:25:04;;;;;;;5.32;2.00;;;35.40;47.60;;;;;;4822807;29;20091;-53